Terminal Aerodrome Forecast
Issued by NWS Omaha/Valley, NE

Home | Current Version | Previous Version | Graphics & Text | Print | Product List | Glossary On
Versions: 1 2 3 4 5 6 7 8 9 10 11 12 13 14
000
FTUS43 KOAX 210520
TAFOFK
TAF
KOFK 210520Z 2106/2206 19008KT P6SM BKN150
     FM210700 24008KT 6SM -RA BKN050 OVC090
     FM210900 33010KT 6SM -RA BKN050 OVC090
     FM211100 33014KT P6SM BKN090
     FM211400 35018G25KT P6SM FEW090 SCT250
     FM212300 35008KT P6SM SKC=

USA.gov is the U.S. government's official web portal to all federal, state and local government web resources and services.